Cap Ferrato — 9HA3174 — position and weather

sailwx.info

Track history (hours):
 
Tides and Currents Weather Stations Pressure Air Temp Water Temp Dewpoint Dewpoint Depression Visibility Wind Speed Wind Dir Waves Ship Positions

Cap Ferrato

Last reported at 2017-Nov-24 09:30 UTC. Time now 2017-Nov-24 09:35 UTC.
Position S 36°19' E 150°53'.

Length 256 m; draft 11.7 m.

Type: Ship (hazmat cat A). MMSI: 229249000.

Date/timePositionNaut miles runAvg speedWind from/ knotsBaromVisibWave heightAir tempDewpointWater temp
2017-Nov-24 09:30S 36°19' E 150°53'1214.7
2017-Nov-24 08:41S 36°08' E 150°59'12816.3
2017-Nov-24 00:50S 34°10' E 151°60'615.8
2017-Nov-24 00:28S 34°05' E 152°02'816.2
2017-Nov-23 23:58S 33°57' E 152°06'1815.9
2017-Nov-23 22:49S 33°41' E 152°15'1615.6
2017-Nov-23 21:49S 33°26' E 152°22'615.2
2017-Nov-23 21:27S 33°21' E 152°25'715.4
2017-Nov-23 21:00S 33°15' E 152°28'816.2
2017-Nov-23 20:30S 33°07' E 152°32'816.5
2017-Nov-23 20:00S 32°60' E 152°35'816.5
2017-Nov-23 19:30S 32°52' E 152°39'816.8
2017-Nov-23 19:00S 32°44' E 152°43'816.6
2017-Nov-23 18:30S 32°37' E 152°47'23618.1
2017-Nov-23 05:28S 28°48' E 153°51'818.2
2017-Nov-23 05:00S 28°39' E 153°52'918.0
2017-Nov-23 04:30S 28°30' E 153°53'917.8
2017-Nov-23 04:00S 28°21' E 153°54'917.8
2017-Nov-23 03:30S 28°12' E 153°54'917.4
2017-Nov-23 03:00S 28°04' E 153°54'917.2
2017-Nov-23 02:30S 27°55' E 153°54'817.0
2017-Nov-23 02:00S 27°47' E 153°54'816.2
2017-Nov-23 01:30S 27°39' E 153°54'  
Track history (hours):
 
Tides and Currents Weather Stations Pressure Air Temp Water Temp Dewpoint Dewpoint Depression Visibility Wind Speed Wind Dir Waves Ship Positions

Cap Ferrato

Last reported at 2017-Nov-24 09:30 UTC. Time now 2017-Nov-24 09:35 UTC.
Position S 36°19' E 150°53'.

Length 256 m; draft 11.7 m.

Type: Ship (hazmat cat A). MMSI: 229249000.

Date/timePositionNaut miles runAvg speedWind from/ knotsBaromVisibWave heightAir tempDewpointWater temp
2017-Nov-24 09:30S 36°19' E 150°53'1214.7
2017-Nov-24 08:41S 36°08' E 150°59'12816.3
2017-Nov-24 00:50S 34°10' E 151°60'615.8
2017-Nov-24 00:28S 34°05' E 152°02'816.2
2017-Nov-23 23:58S 33°57' E 152°06'1815.9
2017-Nov-23 22:49S 33°41' E 152°15'1615.6
2017-Nov-23 21:49S 33°26' E 152°22'615.2
2017-Nov-23 21:27S 33°21' E 152°25'715.4
2017-Nov-23 21:00S 33°15' E 152°28'816.2
2017-Nov-23 20:30S 33°07' E 152°32'816.5
2017-Nov-23 20:00S 32°60' E 152°35'816.5
2017-Nov-23 19:30S 32°52' E 152°39'816.8
2017-Nov-23 19:00S 32°44' E 152°43'816.6
2017-Nov-23 18:30S 32°37' E 152°47'23618.1
2017-Nov-23 05:28S 28°48' E 153°51'818.2
2017-Nov-23 05:00S 28°39' E 153°52'918.0
2017-Nov-23 04:30S 28°30' E 153°53'917.8
2017-Nov-23 04:00S 28°21' E 153°54'917.8
2017-Nov-23 03:30S 28°12' E 153°54'917.4
2017-Nov-23 03:00S 28°04' E 153°54'917.2
2017-Nov-23 02:30S 27°55' E 153°54'817.0
2017-Nov-23 02:00S 27°47' E 153°54'816.2
2017-Nov-23 01:30S 27°39' E 153°54'  

Dump ship's entire track history